PWSweather.com
Personal Weather Stations
Station Observations
IRONTON
Ironton, Charlevoix, MI 49720

IrontonCharlevoix, MI 49720

Lat: 45.26, Lon: -85.22

Elevation: 750

Station Type:

Latest ConditionsUpdated 5:55:00 AM EDT Wednesday, May 22, 2019
Currently Today's Max Today's Min Today's Average
Temperature 54.0°F12.2°C 55.6°F13.1°C 52.7°F11.5°C 53.7°F12.1°C
Dew Point 36.8°F2.7°C 40.8°F4.9°C 32.8°F0.4°C 35.7°F2.1°C
Winds 11.0 mph ESE17.7 kmh ESE 12.0 mph -19.3 kmh - - 7.2 mph 11.6 kmh
Wind Gusts 18.0 mph29.0 kmh 18.0 mph29.0 kmh - -
Humidity 52% 58% 45% 50%
Pressure 30.01 in1016.3 mb 30.11 in1019.6 mb 30.01 in1016.3 mb -
Hour Temp Dew Point Humidity Winds Wind Gusts Pressure Precip Precip Rate Daily Precip Total
05:55 AM 54.0°F12.2°C 36.8°F2.7°C 52% 11.0 mph ESE17.7 kmh ESE 18.0 mph29.0 kmh 30.01 in1016.3 mb 0.00 in0.0 mm 0.00 in0.0 mm 0.00 in0.0 mm
05:50 AM 53.7°F12.1°C 37.0°F2.8°C 53% 11.0 mph ESE17.7 kmh ESE 16.0 mph25.7 kmh 30.02 in1016.6 mb 0.00 in0.0 mm 0.00 in0.0 mm 0.00 in0.0 mm
05:45 AM 53.7°F12.1°C 36.5°F2.5°C 52% 11.0 mph ESE17.7 kmh ESE 16.0 mph25.7 kmh 30.02 in1016.6 mb 0.00 in0.0 mm 0.00 in0.0 mm 0.00 in0.0 mm
05:40 AM 53.6°F12.0°C 36.4°F2.4°C 52% 11.0 mph E17.7 kmh E 16.0 mph25.7 kmh 30.03 in1016.9 mb 0.00 in0.0 mm 0.00 in0.0 mm 0.00 in0.0 mm
05:35 AM 53.7°F12.1°C 36.5°F2.5°C 52% 11.0 mph E17.7 kmh E 18.0 mph29.0 kmh 30.02 in1016.6 mb 0.00 in0.0 mm 0.00 in0.0 mm 0.00 in0.0 mm
05:30 AM 53.8°F12.1°C 35.1°F1.7°C 49% 12.0 mph ESE19.3 kmh ESE 18.0 mph29.0 kmh 30.04 in1017.3 mb 0.00 in0.0 mm 0.00 in0.0 mm 0.00 in0.0 mm
05:25 AM 53.7°F12.1°C 35.0°F1.7°C 49% 11.0 mph ESE17.7 kmh ESE 18.0 mph29.0 kmh 30.05 in1017.6 mb 0.00 in0.0 mm 0.00 in0.0 mm 0.00 in0.0 mm
05:20 AM 53.7°F12.1°C 35.0°F1.7°C 49% 9.0 mph ESE14.5 kmh ESE 14.0 mph22.5 kmh 30.05 in1017.6 mb 0.00 in0.0 mm 0.00 in0.0 mm 0.00 in0.0 mm
05:15 AM 53.9°F12.2°C 34.1°F1.2°C 47% 9.0 mph SE14.5 kmh SE 13.0 mph20.9 kmh 30.05 in1017.6 mb 0.00 in0.0 mm 0.00 in0.0 mm 0.00 in0.0 mm
05:10 AM 53.9°F12.2°C 33.6°F0.9°C 46% 10.0 mph SE16.1 kmh SE 14.0 mph22.5 kmh 30.06 in1017.9 mb 0.00 in0.0 mm 0.00 in0.0 mm 0.00 in0.0 mm
05:05 AM 53.8°F12.1°C 32.9°F0.5°C 45% 9.0 mph SE14.5 kmh SE 14.0 mph22.5 kmh 30.06 in1017.9 mb 0.00 in0.0 mm 0.00 in0.0 mm 0.00 in0.0 mm
05:00 AM 53.6°F12.0°C 33.3°F0.7°C 46% 7.0 mph SE11.3 kmh SE 11.0 mph17.7 kmh 30.06 in1017.9 mb 0.00 in0.0 mm 0.00 in0.0 mm 0.00 in0.0 mm
04:55 AM 53.6°F12.0°C 33.3°F0.7°C 46% 6.0 mph SE9.7 kmh SE 10.0 mph16.1 kmh 30.06 in1017.9 mb 0.00 in0.0 mm 0.00 in0.0 mm 0.00 in0.0 mm
04:50 AM 53.7°F12.1°C 33.4°F0.8°C 46% 5.0 mph SE8.0 kmh SE 10.0 mph16.1 kmh 30.05 in1017.6 mb 0.00 in0.0 mm 0.00 in0.0 mm 0.00 in0.0 mm
04:45 AM 53.7°F12.1°C 32.8°F0.4°C 45% 4.0 mph SE6.4 kmh SE 8.0 mph12.9 kmh 30.06 in1017.9 mb 0.00 in0.0 mm 0.00 in0.0 mm 0.00 in0.0 mm
04:40 AM 53.7°F12.1°C 33.4°F0.8°C 46% 4.0 mph SE6.4 kmh SE 8.0 mph12.9 kmh 30.06 in1017.9 mb 0.00 in0.0 mm 0.00 in0.0 mm 0.00 in0.0 mm
04:35 AM 53.7°F12.1°C 32.8°F0.4°C 45% 5.0 mph SE8.0 kmh SE 8.0 mph12.9 kmh 30.05 in1017.6 mb 0.00 in0.0 mm 0.00 in0.0 mm 0.00 in0.0 mm
04:30 AM 53.6°F12.0°C 33.3°F0.7°C 46% 5.0 mph SE8.0 kmh SE 8.0 mph12.9 kmh 30.05 in1017.6 mb 0.00 in0.0 mm 0.00 in0.0 mm 0.00 in0.0 mm
04:25 AM 53.5°F11.9°C 33.2°F0.7°C 46% 5.0 mph SE8.0 kmh SE 8.0 mph12.9 kmh 30.05 in1017.6 mb 0.00 in0.0 mm 0.00 in0.0 mm 0.00 in0.0 mm
04:20 AM 53.5°F11.9°C 33.2°F0.7°C 46% 5.0 mph ESE8.0 kmh ESE 8.0 mph12.9 kmh 30.05 in1017.6 mb 0.00 in0.0 mm 0.00 in0.0 mm 0.00 in0.0 mm
04:15 AM 53.5°F11.9°C 33.2°F0.7°C 46% 6.0 mph E9.7 kmh E 12.0 mph19.3 kmh 30.04 in1017.3 mb 0.00 in0.0 mm 0.00 in0.0 mm 0.00 in0.0 mm
04:10 AM 53.7°F12.1°C 33.9°F1.1°C 47% 7.0 mph E11.3 kmh E 13.0 mph20.9 kmh 30.03 in1016.9 mb 0.00 in0.0 mm 0.00 in0.0 mm 0.00 in0.0 mm
04:05 AM 53.6°F12.0°C 33.3°F0.7°C 46% 8.0 mph E12.9 kmh E 15.0 mph24.1 kmh 30.03 in1016.9 mb 0.00 in0.0 mm 0.00 in0.0 mm 0.00 in0.0 mm
04:00 AM 53.5°F11.9°C 33.2°F0.7°C 46% 9.0 mph E14.5 kmh E 15.0 mph24.1 kmh 30.02 in1016.6 mb 0.00 in0.0 mm 0.00 in0.0 mm 0.00 in0.0 mm
03:55 AM 53.3°F11.8°C 33.0°F0.6°C 46% 8.0 mph E12.9 kmh E 14.0 mph22.5 kmh 30.02 in1016.6 mb 0.00 in0.0 mm 0.00 in0.0 mm 0.00 in0.0 mm
03:50 AM 53.1°F11.7°C 32.8°F0.4°C 46% 7.0 mph E11.3 kmh E 12.0 mph19.3 kmh 30.02 in1016.6 mb 0.00 in0.0 mm 0.00 in0.0 mm 0.00 in0.0 mm
03:45 AM 53.0°F11.7°C 33.3°F0.7°C 47% 8.0 mph E12.9 kmh E 12.0 mph19.3 kmh 30.02 in1016.6 mb 0.00 in0.0 mm 0.00 in0.0 mm 0.00 in0.0 mm
03:40 AM 53.0°F11.7°C 33.3°F0.7°C 47% 8.0 mph E12.9 kmh E 12.0 mph19.3 kmh 30.02 in1016.6 mb 0.00 in0.0 mm 0.00 in0.0 mm 0.00 in0.0 mm
03:35 AM 52.9°F11.6°C 33.2°F0.7°C 47% 8.0 mph E12.9 kmh E 13.0 mph20.9 kmh 30.02 in1016.6 mb 0.00 in0.0 mm 0.00 in0.0 mm 0.00 in0.0 mm
03:30 AM 53.0°F11.7°C 33.3°F0.7°C 47% 8.0 mph E12.9 kmh E 13.0 mph20.9 kmh 30.02 in1016.6 mb 0.00 in0.0 mm 0.00 in0.0 mm 0.00 in0.0 mm
03:25 AM 52.9°F11.6°C 33.7°F0.9°C 48% 8.0 mph E12.9 kmh E 11.0 mph17.7 kmh 30.02 in1016.6 mb 0.00 in0.0 mm 0.00 in0.0 mm 0.00 in0.0 mm
03:20 AM 53.0°F11.7°C 33.8°F1.0°C 48% 8.0 mph E12.9 kmh E 11.0 mph17.7 kmh 30.02 in1016.6 mb 0.00 in0.0 mm 0.00 in0.0 mm 0.00 in0.0 mm
03:15 AM 53.1°F11.7°C 33.4°F0.8°C 47% 8.0 mph E12.9 kmh E 14.0 mph22.5 kmh 30.02 in1016.6 mb 0.00 in0.0 mm 0.00 in0.0 mm 0.00 in0.0 mm
03:10 AM 53.0°F11.7°C 33.3°F0.7°C 47% 7.0 mph E11.3 kmh E 14.0 mph22.5 kmh 30.02 in1016.6 mb 0.00 in0.0 mm 0.00 in0.0 mm 0.00 in0.0 mm
03:05 AM 53.1°F11.7°C 33.4°F0.8°C 47% 7.0 mph E11.3 kmh E 12.0 mph19.3 kmh 30.03 in1016.9 mb 0.00 in0.0 mm 0.00 in0.0 mm 0.00 in0.0 mm
03:00 AM 53.1°F11.7°C 33.9°F1.1°C 48% 8.0 mph E12.9 kmh E 13.0 mph20.9 kmh 30.02 in1016.6 mb 0.00 in0.0 mm 0.00 in0.0 mm 0.00 in0.0 mm
02:55 AM 53.0°F11.7°C 33.8°F1.0°C 48% 8.0 mph E12.9 kmh E 13.0 mph20.9 kmh 30.02 in1016.6 mb 0.00 in0.0 mm 0.00 in0.0 mm 0.00 in0.0 mm
02:50 AM 52.9°F11.6°C 34.8°F1.6°C 50% 10.0 mph E16.1 kmh E 15.0 mph24.1 kmh 30.02 in1016.6 mb 0.00 in0.0 mm 0.00 in0.0 mm 0.00 in0.0 mm
02:45 AM 52.9°F11.6°C 34.2°F1.2°C 49% 12.0 mph E19.3 kmh E 17.0 mph27.4 kmh 30.02 in1016.6 mb 0.00 in0.0 mm 0.00 in0.0 mm 0.00 in0.0 mm
02:40 AM 52.7°F11.5°C 34.6°F1.4°C 50% 11.0 mph E17.7 kmh E 17.0 mph27.4 kmh 30.02 in1016.6 mb 0.00 in0.0 mm 0.00 in0.0 mm 0.00 in0.0 mm
02:35 AM 52.8°F11.6°C 35.2°F1.8°C 51% 9.0 mph E14.5 kmh E 14.0 mph22.5 kmh 30.03 in1016.9 mb 0.00 in0.0 mm 0.00 in0.0 mm 0.00 in0.0 mm
02:30 AM 53.0°F11.7°C 35.3°F1.8°C 51% 8.0 mph E12.9 kmh E 13.0 mph20.9 kmh 30.05 in1017.6 mb 0.00 in0.0 mm 0.00 in0.0 mm 0.00 in0.0 mm
02:25 AM 53.2°F11.8°C 35.5°F1.9°C 51% 8.0 mph E12.9 kmh E 13.0 mph20.9 kmh 30.06 in1017.9 mb 0.00 in0.0 mm 0.00 in0.0 mm 0.00 in0.0 mm
02:20 AM 53.1°F11.7°C 35.4°F1.9°C 51% 7.0 mph E11.3 kmh E 11.0 mph17.7 kmh 30.06 in1017.9 mb 0.00 in0.0 mm 0.00 in0.0 mm 0.00 in0.0 mm
02:15 AM 53.0°F11.7°C 35.3°F1.8°C 51% 8.0 mph ESE12.9 kmh ESE 11.0 mph17.7 kmh 30.06 in1017.9 mb 0.00 in0.0 mm 0.00 in0.0 mm 0.00 in0.0 mm
02:10 AM 53.0°F11.7°C 35.8°F2.1°C 52% 8.0 mph ESE12.9 kmh ESE 13.0 mph20.9 kmh 30.06 in1017.9 mb 0.00 in0.0 mm 0.00 in0.0 mm 0.00 in0.0 mm
02:05 AM 52.9°F11.6°C 36.2°F2.3°C 53% 8.0 mph ESE12.9 kmh ESE 13.0 mph20.9 kmh 30.06 in1017.9 mb 0.00 in0.0 mm 0.00 in0.0 mm 0.00 in0.0 mm
02:00 AM 53.0°F11.7°C 36.3°F2.4°C 53% 8.0 mph ESE12.9 kmh ESE 12.0 mph19.3 kmh 30.07 in1018.3 mb 0.00 in0.0 mm 0.00 in0.0 mm 0.00 in0.0 mm
01:55 AM 53.1°F11.7°C 36.4°F2.4°C 53% 8.0 mph ESE12.9 kmh ESE 12.0 mph19.3 kmh 30.07 in1018.3 mb 0.00 in0.0 mm 0.00 in0.0 mm 0.00 in0.0 mm
01:50 AM 53.3°F11.8°C 36.6°F2.6°C 53% 8.0 mph ESE12.9 kmh ESE 13.0 mph20.9 kmh 30.06 in1017.9 mb 0.00 in0.0 mm 0.00 in0.0 mm 0.00 in0.0 mm
01:45 AM 53.6°F12.0°C 36.4°F2.4°C 52% 8.0 mph ESE12.9 kmh ESE 13.0 mph20.9 kmh 30.07 in1018.3 mb 0.00 in0.0 mm 0.00 in0.0 mm 0.00 in0.0 mm
01:40 AM 53.6°F12.0°C 36.4°F2.4°C 52% 7.0 mph E11.3 kmh E 12.0 mph19.3 kmh 30.06 in1017.9 mb 0.00 in0.0 mm 0.00 in0.0 mm 0.00 in0.0 mm
01:35 AM 53.7°F12.1°C 37.0°F2.8°C 53% 7.0 mph E11.3 kmh E 12.0 mph19.3 kmh 30.07 in1018.3 mb 0.00 in0.0 mm 0.00 in0.0 mm 0.00 in0.0 mm
01:30 AM 54.0°F12.2°C 37.7°F3.2°C 54% 7.0 mph E11.3 kmh E 10.0 mph16.1 kmh 30.07 in1018.3 mb 0.00 in0.0 mm 0.00 in0.0 mm 0.00 in0.0 mm
01:25 AM 54.2°F12.3°C 37.9°F3.3°C 54% 8.0 mph ESE12.9 kmh ESE 14.0 mph22.5 kmh 30.08 in1018.6 mb 0.00 in0.0 mm 0.00 in0.0 mm 0.00 in0.0 mm
01:20 AM 54.3°F12.4°C 37.0°F2.8°C 52% 8.0 mph ESE12.9 kmh ESE 14.0 mph22.5 kmh 30.08 in1018.6 mb 0.00 in0.0 mm 0.00 in0.0 mm 0.00 in0.0 mm
01:15 AM 54.4°F12.4°C 37.1°F2.8°C 52% 8.0 mph ESE12.9 kmh ESE 12.0 mph19.3 kmh 30.08 in1018.6 mb 0.00 in0.0 mm 0.00 in0.0 mm 0.00 in0.0 mm
01:10 AM 54.6°F12.6°C 37.3°F2.9°C 52% 9.0 mph ESE14.5 kmh ESE 14.0 mph22.5 kmh 30.09 in1019.0 mb 0.00 in0.0 mm 0.00 in0.0 mm 0.00 in0.0 mm
01:05 AM 54.6°F12.6°C 36.8°F2.7°C 51% 8.0 mph ESE12.9 kmh ESE 14.0 mph22.5 kmh 30.09 in1019.0 mb 0.00 in0.0 mm 0.00 in0.0 mm 0.00 in0.0 mm
01:00 AM 54.6°F12.6°C 37.8°F3.2°C 53% 6.0 mph ESE9.7 kmh ESE 10.0 mph16.1 kmh 30.09 in1019.0 mb 0.00 in0.0 mm 0.00 in0.0 mm 0.00 in0.0 mm
12:55 AM 54.7°F12.6°C 38.4°F3.6°C 54% 6.0 mph ESE9.7 kmh ESE 10.0 mph16.1 kmh 30.09 in1019.0 mb 0.00 in0.0 mm 0.00 in0.0 mm 0.00 in0.0 mm
12:50 AM 54.8°F12.7°C 38.5°F3.6°C 54% 7.0 mph ESE11.3 kmh ESE 11.0 mph17.7 kmh 30.09 in1019.0 mb 0.00 in0.0 mm 0.00 in0.0 mm 0.00 in0.0 mm
12:45 AM 54.9°F12.7°C 39.5°F4.2°C 56% 7.0 mph SE11.3 kmh SE 11.0 mph17.7 kmh 30.09 in1019.0 mb 0.00 in0.0 mm 0.00 in0.0 mm 0.00 in0.0 mm
12:40 AM 54.8°F12.7°C 39.8°F4.3°C 57% 5.0 mph SE8.0 kmh SE 11.0 mph17.7 kmh 30.09 in1019.0 mb 0.00 in0.0 mm 0.00 in0.0 mm 0.00 in0.0 mm
12:35 AM 54.9°F12.7°C 40.4°F4.7°C 58% 4.0 mph SE6.4 kmh SE 8.0 mph12.9 kmh 30.10 in1019.3 mb 0.00 in0.0 mm 0.00 in0.0 mm 0.00 in0.0 mm
12:30 AM 55.0°F12.8°C 40.5°F4.7°C 58% 3.0 mph SE4.8 kmh SE 8.0 mph12.9 kmh 30.10 in1019.3 mb 0.00 in0.0 mm 0.00 in0.0 mm 0.00 in0.0 mm
12:25 AM 55.1°F12.8°C 40.6°F4.8°C 58% 2.0 mph SSE3.2 kmh SSE 7.0 mph11.3 kmh 30.11 in1019.6 mb 0.00 in0.0 mm 0.00 in0.0 mm 0.00 in0.0 mm
12:20 AM 55.2°F12.9°C 40.7°F4.8°C 58% 1.0 mph S1.6 kmh S 5.0 mph8.0 kmh 30.11 in1019.6 mb 0.00 in0.0 mm 0.00 in0.0 mm 0.00 in0.0 mm
12:15 AM 55.3°F12.9°C 40.8°F4.9°C 58% 1.0 mph SSE1.6 kmh SSE 6.0 mph9.7 kmh 30.11 in1019.6 mb 0.00 in0.0 mm 0.00 in0.0 mm 0.00 in0.0 mm
12:10 AM 55.4°F13.0°C 40.4°F4.7°C 57% 1.0 mph SSE1.6 kmh SSE 6.0 mph9.7 kmh 30.11 in1019.6 mb 0.00 in0.0 mm 0.00 in0.0 mm 0.00 in0.0 mm
12:05 AM 55.5°F13.1°C 40.5°F4.7°C 57% 1.0 mph SSE1.6 kmh SSE 4.0 mph6.4 kmh 30.11 in1019.6 mb 0.00 in0.0 mm 0.00 in0.0 mm 0.00 in0.0 mm
12:00 AM 55.6°F13.1°C 40.6°F4.8°C 57% 1.0 mph SSE1.6 kmh SSE 5.0 mph8.0 kmh 30.11 in1019.6 mb 0.00 in0.0 mm 0.00 in0.0 mm 0.00 in0.0 mm